sensor_id;sensor_type;location;lat;lon;timestamp;pressure;altitude;pressure_sealevel;temperature;humidity
75681;BME280;64294;49.176;16.626;2022-12-07T00:01:12;99008.25;;;2.46;99.28
75681;BME280;64294;49.176;16.626;2022-12-07T00:03:43;99002.50;;;2.50;98.85
75681;BME280;64294;49.176;16.626;2022-12-07T00:06:10;99001.88;;;2.40;99.75
75681;BME280;64294;49.176;16.626;2022-12-07T00:08:37;99008.00;;;2.44;99.61
75681;BME280;64294;49.176;16.626;2022-12-07T00:11:04;99007.72;;;2.42;99.93
75681;BME280;64294;49.176;16.626;2022-12-07T00:13:31;99003.69;;;2.43;99.36
75681;BME280;64294;49.176;16.626;2022-12-07T00:16:05;99006.47;;;2.43;99.42
75681;BME280;64294;49.176;16.626;2022-12-07T00:18:31;98996.72;;;2.53;98.97
75681;BME280;64294;49.176;16.626;2022-12-07T00:21:01;99001.94;;;2.46;99.35
75681;BME280;64294;49.176;16.626;2022-12-07T00:23:27;98991.28;;;2.38;99.66
75681;BME280;64294;49.176;16.626;2022-12-07T00:25:53;98992.59;;;2.43;99.62
75681;BME280;64294;49.176;16.626;2022-12-07T00:28:18;98996.81;;;2.38;99.76
75681;BME280;64294;49.176;16.626;2022-12-07T00:30:44;98994.13;;;2.44;99.19
75681;BME280;64294;49.176;16.626;2022-12-07T00:33:09;98987.50;;;2.41;99.71
75681;BME280;64294;49.176;16.626;2022-12-07T00:35:34;98987.25;;;2.39;100.00
75681;BME280;64294;49.176;16.626;2022-12-07T00:38:00;98992.78;;;2.39;99.51
75681;BME280;64294;49.176;16.626;2022-12-07T00:40:25;98978.44;;;2.41;99.63
75681;BME280;64294;49.176;16.626;2022-12-07T00:42:50;98981.69;;;2.39;99.87
75681;BME280;64294;49.176;16.626;2022-12-07T00:45:16;98986.50;;;2.39;99.62
75681;BME280;64294;49.176;16.626;2022-12-07T00:47:41;98988.34;;;2.48;99.41
75681;BME280;64294;49.176;16.626;2022-12-07T00:50:06;98983.97;;;2.41;99.92
75681;BME280;64294;49.176;16.626;2022-12-07T00:52:32;98983.56;;;2.48;99.79
75681;BME280;64294;49.176;16.626;2022-12-07T00:54:57;98983.03;;;2.44;100.00
75681;BME280;64294;49.176;16.626;2022-12-07T00:57:22;98991.53;;;2.40;99.64
75681;BME280;64294;49.176;16.626;2022-12-07T00:59:48;98996.06;;;2.38;100.00
75681;BME280;64294;49.176;16.626;2022-12-07T01:02:13;99000.97;;;2.49;99.86
75681;BME280;64294;49.176;16.626;2022-12-07T01:04:39;98989.81;;;2.43;99.75
75681;BME280;64294;49.176;16.626;2022-12-07T01:07:04;99001.88;;;2.40;99.81
75681;BME280;64294;49.176;16.626;2022-12-07T01:09:32;98996.41;;;2.46;99.49
75681;BME280;64294;49.176;16.626;2022-12-07T01:11:58;98998.47;;;2.51;99.79
75681;BME280;64294;49.176;16.626;2022-12-07T01:14:23;99002.94;;;2.42;99.80
75681;BME280;64294;49.176;16.626;2022-12-07T01:16:48;99010.00;;;2.43;100.00
75681;BME280;64294;49.176;16.626;2022-12-07T01:19:14;99000.63;;;2.41;100.00
75681;BME280;64294;49.176;16.626;2022-12-07T01:21:39;99000.63;;;2.41;100.00
75681;BME280;64294;49.176;16.626;2022-12-07T01:24:08;99003.75;;;2.49;99.46
75681;BME280;64294;49.176;16.626;2022-12-07T01:26:34;98996.41;;;2.46;99.80
75681;BME280;64294;49.176;16.626;2022-12-07T01:28:59;99005.00;;;2.48;99.31
75681;BME280;64294;49.176;16.626;2022-12-07T01:31:26;99003.56;;;2.58;98.75
75681;BME280;64294;49.176;16.626;2022-12-07T01:33:54;99001.19;;;2.45;99.10
75681;BME280;64294;49.176;16.626;2022-12-07T01:36:26;98994.13;;;2.44;99.56
75681;BME280;64294;49.176;16.626;2022-12-07T01:38:58;98988.56;;;2.44;99.54
75681;BME280;64294;49.176;16.626;2022-12-07T01:41:26;98987.31;;;2.45;99.34
75681;BME280;64294;49.176;16.626;2022-12-07T01:44:15;98981.78;;;2.45;98.76
75681;BME280;64294;49.176;16.626;2022-12-07T01:46:43;98984.75;;;2.41;99.15
75681;BME280;64294;49.176;16.626;2022-12-07T01:49:13;98988.78;;;2.40;99.18
75681;BME280;64294;49.176;16.626;2022-12-07T01:51:40;98983.78;;;2.45;98.63
75681;BME280;64294;49.176;16.626;2022-12-07T01:54:07;98988.41;;;2.53;98.06
75681;BME280;64294;49.176;16.626;2022-12-07T01:56:35;98983.84;;;2.50;98.22
75681;BME280;64294;49.176;16.626;2022-12-07T01:59:01;98979.53;;;2.49;98.61
75681;BME280;64294;49.176;16.626;2022-12-07T02:01:27;98974.22;;;2.46;98.98
75681;BME280;64294;49.176;16.626;2022-12-07T02:03:53;98980.75;;;2.42;99.06
75681;BME280;64294;49.176;16.626;2022-12-07T02:06:22;98974.97;;;2.46;98.29
75681;BME280;64294;49.176;16.626;2022-12-07T02:08:49;98979.97;;;2.42;98.46
75681;BME280;64294;49.176;16.626;2022-12-07T02:11:15;98983.78;;;2.45;97.49
75681;BME280;64294;49.176;16.626;2022-12-07T02:13:41;98975.50;;;2.50;96.52
75681;BME280;64294;49.176;16.626;2022-12-07T02:18:48;98975.50;;;2.50;96.34
75681;BME280;64294;49.176;16.626;2022-12-07T02:29:33;98968.72;;;2.51;96.08
75681;BME280;64294;49.176;16.626;2022-12-07T02:32:24;98984.47;;;2.65;95.88
75681;BME280;64294;49.176;16.626;2022-12-07T02:35:07;98970.22;;;2.52;96.72
75681;BME280;64294;49.176;16.626;2022-12-07T02:40:14;98978.44;;;2.41;97.24
75681;BME280;64294;49.176;16.626;2022-12-07T02:42:49;98983.03;;;2.44;97.47
75681;BME280;64294;49.176;16.626;2022-12-07T02:45:17;98977.63;;;2.35;97.54
75681;BME280;64294;49.176;16.626;2022-12-07T02:47:44;98985.94;;;2.35;97.35
75681;BME280;64294;49.176;16.626;2022-12-07T02:50:11;98988.44;;;2.33;97.37
75681;BME280;64294;49.176;16.626;2022-12-07T02:52:37;98983.41;;;2.31;97.37
75681;BME280;64294;49.176;16.626;2022-12-07T02:55:03;98988.44;;;2.33;96.71
75681;BME280;64294;49.176;16.626;2022-12-07T03:00:24;98980.63;;;2.31;97.00
75681;BME280;64294;49.176;16.626;2022-12-07T03:03:06;98979.69;;;2.40;95.12
75681;BME280;64294;49.176;16.626;2022-12-07T03:05:54;98982.69;;;2.36;95.38
75681;BME280;64294;49.176;16.626;2022-12-07T03:11:50;98972.56;;;2.33;95.54
75681;BME280;64294;49.176;16.626;2022-12-07T03:14:21;98974.53;;;2.27;96.03
75681;BME280;64294;49.176;16.626;2022-12-07T03:17:17;98975.97;;;2.23;96.24
75681;BME280;64294;49.176;16.626;2022-12-07T03:19:44;98979.06;;;2.25;96.44
75681;BME280;64294;49.176;16.626;2022-12-07T03:22:12;98982.31;;;2.23;96.17
75681;BME280;64294;49.176;16.626;2022-12-07T03:27:12;98975.53;;;2.24;96.10
75681;BME280;64294;49.176;16.626;2022-12-07T03:29:44;98983.09;;;2.24;95.68
75681;BME280;64294;49.176;16.626;2022-12-07T03:32:16;98980.09;;;2.27;95.61
75681;BME280;64294;49.176;16.626;2022-12-07T03:35:00;98982.38;;;2.29;95.49
75681;BME280;64294;49.176;16.626;2022-12-07T03:40:30;98974.28;;;2.25;94.77
75681;BME280;64294;49.176;16.626;2022-12-07T03:42:59;98978.50;;;2.21;95.37
75681;BME280;64294;49.176;16.626;2022-12-07T03:45:34;98971.38;;;2.14;96.22
75681;BME280;64294;49.176;16.626;2022-12-07T03:51:11;98977.41;;;2.12;96.53
75681;BME280;64294;49.176;16.626;2022-12-07T03:53:43;98974.63;;;2.12;96.42
75681;BME280;64294;49.176;16.626;2022-12-07T03:56:11;98980.94;;;2.13;96.41
75681;BME280;64294;49.176;16.626;2022-12-07T03:58:38;98973.38;;;2.13;96.21
75681;BME280;64294;49.176;16.626;2022-12-07T04:01:05;98971.38;;;2.14;96.67
75681;BME280;64294;49.176;16.626;2022-12-07T04:03:30;98974.63;;;2.12;96.51
75681;BME280;64294;49.176;16.626;2022-12-07T04:05:56;98972.13;;;2.15;96.83
75681;BME280;64294;49.176;16.626;2022-12-07T04:08:23;98963.53;;;2.12;97.09
75681;BME280;64294;49.176;16.626;2022-12-07T04:10:49;98964.78;;;2.11;97.96
75681;BME280;64294;49.176;16.626;2022-12-07T04:13:14;98966.81;;;2.11;97.20
75681;BME280;64294;49.176;16.626;2022-12-07T04:15:39;98963.06;;;2.14;97.19
75681;BME280;64294;49.176;16.626;2022-12-07T04:18:05;98966.81;;;2.11;97.19
75681;BME280;64294;49.176;16.626;2022-12-07T04:20:30;98966.59;;;2.15;96.42
75681;BME280;64294;49.176;16.626;2022-12-07T04:22:55;98962.03;;;2.11;97.15
75681;BME280;64294;49.176;16.626;2022-12-07T04:25:21;98954.19;;;2.10;97.18
75681;BME280;64294;49.176;16.626;2022-12-07T04:27:46;98956.91;;;2.30;96.34
75681;BME280;64294;49.176;16.626;2022-12-07T04:30:12;98962.63;;;2.21;96.30
75681;BME280;64294;49.176;16.626;2022-12-07T04:32:37;98960.59;;;2.22;96.34
75681;BME280;64294;49.176;16.626;2022-12-07T04:35:03;98973.94;;;2.18;96.26
75681;BME280;64294;49.176;16.626;2022-12-07T04:37:29;98977.47;;;2.18;95.79
75681;BME280;64294;49.176;16.626;2022-12-07T04:39:54;98971.41;;;2.20;96.57
75681;BME280;64294;49.176;16.626;2022-12-07T04:42:20;98976.81;;;2.29;95.59
75681;BME280;64294;49.176;16.626;2022-12-07T04:44:45;98972.88;;;2.41;94.21
75681;BME280;64294;49.176;16.626;2022-12-07T04:47:10;98973.94;;;2.43;93.88
75681;BME280;64294;49.176;16.626;2022-12-07T04:49:36;98968.31;;;2.38;93.89
75681;BME280;64294;49.176;16.626;2022-12-07T04:52:01;98980.25;;;2.44;93.10
75681;BME280;64294;49.176;16.626;2022-12-07T04:54:26;98976.09;;;2.34;93.45
75681;BME280;64294;49.176;16.626;2022-12-07T04:56:52;98970.84;;;2.36;93.66
75681;BME280;64294;49.176;16.626;2022-12-07T04:59:17;98972.88;;;2.41;92.76
75681;BME280;64294;49.176;16.626;2022-12-07T05:01:43;98970.06;;;2.35;93.25
75681;BME280;64294;49.176;16.626;2022-12-07T05:04:09;98965.00;;;2.34;93.83
75681;BME280;64294;49.176;16.626;2022-12-07T05:06:34;98977.63;;;2.35;93.90
75681;BME280;64294;49.176;16.626;2022-12-07T05:09:00;98965.47;;;2.27;94.73
75681;BME280;64294;49.176;16.626;2022-12-07T05:11:26;98966.00;;;2.31;94.81
75681;BME280;64294;49.176;16.626;2022-12-07T05:14:23;98968.22;;;2.27;94.64
75681;BME280;64294;49.176;16.626;2022-12-07T05:16:50;98970.28;;;2.32;93.94
75681;BME280;64294;49.176;16.626;2022-12-07T05:19:16;98973.03;;;2.26;93.91
75681;BME280;64294;49.176;16.626;2022-12-07T05:21:42;98972.44;;;2.22;94.62
75681;BME280;64294;49.176;16.626;2022-12-07T05:24:10;98977.91;;;2.37;93.77
75681;BME280;64294;49.176;16.626;2022-12-07T05:26:35;98976.81;;;2.29;93.88
75681;BME280;64294;49.176;16.626;2022-12-07T05:29:01;98970.38;;;2.17;94.50
75681;BME280;64294;49.176;16.626;2022-12-07T05:31:26;98972.94;;;2.21;94.23
75681;BME280;64294;49.176;16.626;2022-12-07T05:33:52;98978.06;;;2.28;93.64
75681;BME280;64294;49.176;16.626;2022-12-07T05:36:17;98976.44;;;2.16;94.24
75681;BME280;64294;49.176;16.626;2022-12-07T05:38:43;98984.75;;;2.16;94.86
75681;BME280;64294;49.176;16.626;2022-12-07T05:41:12;98975.19;;;2.17;94.93
75681;BME280;64294;49.176;16.626;2022-12-07T05:43:58;98988.94;;;2.05;95.16
75681;BME280;64294;49.176;16.626;2022-12-07T05:46:24;98984.59;;;2.04;95.84
75681;BME280;64294;49.176;16.626;2022-12-07T05:48:49;98986.16;;;2.05;95.62
75681;BME280;64294;49.176;16.626;2022-12-07T05:51:15;98978.19;;;1.93;96.54
75681;BME280;64294;49.176;16.626;2022-12-07T05:53:40;98983.75;;;1.93;96.17
75681;BME280;64294;49.176;16.626;2022-12-07T05:56:06;98981.72;;;1.93;96.46
75681;BME280;64294;49.176;16.626;2022-12-07T05:58:31;98985.25;;;1.94;96.69
75681;BME280;64294;49.176;16.626;2022-12-07T06:01:15;98984.44;;;1.88;96.73
75681;BME280;64294;49.176;16.626;2022-12-07T06:03:40;98986.84;;;1.80;96.67
75681;BME280;64294;49.176;16.626;2022-12-07T06:06:06;98984.09;;;1.80;96.72
75681;BME280;64294;49.176;16.626;2022-12-07T06:08:31;98992.72;;;1.67;97.60
75681;BME280;64294;49.176;16.626;2022-12-07T06:10:56;98993.72;;;1.64;97.88
75681;BME280;64294;49.176;16.626;2022-12-07T06:13:40;98995.22;;;1.45;97.93
75681;BME280;64294;49.176;16.626;2022-12-07T06:16:06;98995.16;;;1.39;98.70
75681;BME280;64294;49.176;16.626;2022-12-07T06:18:31;98991.84;;;1.20;99.59
75681;BME280;64294;49.176;16.626;2022-12-07T06:20:56;98990.91;;;1.09;100.00
75681;BME280;64294;49.176;16.626;2022-12-07T06:23:22;98995.22;;;1.10;100.00
75681;BME280;64294;49.176;16.626;2022-12-07T06:25:47;98994.50;;;0.95;100.00
75681;BME280;64294;49.176;16.626;2022-12-07T06:28:12;99000.41;;;1.02;100.00
75681;BME280;64294;49.176;16.626;2022-12-07T06:30:38;98990.78;;;0.98;100.00
75681;BME280;64294;49.176;16.626;2022-12-07T06:33:03;98988.50;;;0.96;100.00
75681;BME280;64294;49.176;16.626;2022-12-07T06:35:28;98995.81;;;0.99;100.00
75681;BME280;64294;49.176;16.626;2022-12-07T06:37:53;99000.69;;;1.04;100.00
75681;BME280;64294;49.176;16.626;2022-12-07T06:40:19;99001.91;;;1.18;100.00
75681;BME280;64294;49.176;16.626;2022-12-07T06:42:44;98994.69;;;1.26;99.61
75681;BME280;64294;49.176;16.626;2022-12-07T06:45:10;99001.28;;;1.29;99.83
75681;BME280;64294;49.176;16.626;2022-12-07T06:47:35;98999.00;;;1.27;99.85
75681;BME280;64294;49.176;16.626;2022-12-07T06:50:00;99006.63;;;1.32;99.58
75681;BME280;64294;49.176;16.626;2022-12-07T06:52:26;99005.94;;;1.37;99.36
75681;BME280;64294;49.176;16.626;2022-12-07T06:54:51;99005.53;;;1.44;99.35
75681;BME280;64294;49.176;16.626;2022-12-07T06:57:16;99009.16;;;1.50;98.67
75681;BME280;64294;49.176;16.626;2022-12-07T06:59:42;99009.22;;;1.56;98.10
75681;BME280;64294;49.176;16.626;2022-12-07T07:02:08;99007.84;;;1.66;97.30
75681;BME280;64294;49.176;16.626;2022-12-07T07:04:33;99005.53;;;1.65;98.08
75681;BME280;64294;49.176;16.626;2022-12-07T07:06:59;99007.28;;;1.82;96.70
75681;BME280;64294;49.176;16.626;2022-12-07T07:09:24;99001.56;;;1.86;96.12
75681;BME280;64294;49.176;16.626;2022-12-07T07:11:50;98996.97;;;1.83;95.87
75681;BME280;64294;49.176;16.626;2022-12-07T07:14:15;99002.78;;;1.85;96.67
75681;BME280;64294;49.176;16.626;2022-12-07T07:16:44;98996.28;;;1.88;95.35
75681;BME280;64294;49.176;16.626;2022-12-07T07:19:09;98997.38;;;1.96;94.94
75681;BME280;64294;49.176;16.626;2022-12-07T07:21:36;99004.16;;;1.95;95.09
75681;BME280;64294;49.176;16.626;2022-12-07T07:24:01;99012.50;;;1.95;95.40
75681;BME280;64294;49.176;16.626;2022-12-07T07:26:27;98997.66;;;1.98;95.38
75681;BME280;64294;49.176;16.626;2022-12-07T07:28:52;98999.53;;;2.07;94.31
75681;BME280;64294;49.176;16.626;2022-12-07T07:31:17;99004.38;;;2.12;93.76
75681;BME280;64294;49.176;16.626;2022-12-07T07:33:43;99005.88;;;2.13;94.18
75681;BME280;64294;49.176;16.626;2022-12-07T07:36:08;99009.75;;;2.21;93.64
75681;BME280;64294;49.176;16.626;2022-12-07T07:38:33;98999.72;;;2.24;93.64
75681;BME280;64294;49.176;16.626;2022-12-07T07:40:59;99001.28;;;2.30;92.40
75681;BME280;64294;49.176;16.626;2022-12-07T07:43:24;98995.06;;;2.41;92.54
75681;BME280;64294;49.176;16.626;2022-12-07T07:45:49;99007.75;;;2.48;91.36
75681;BME280;64294;49.176;16.626;2022-12-07T07:48:15;99009.59;;;2.30;91.69
75681;BME280;64294;49.176;16.626;2022-12-07T07:50:41;99012.03;;;2.23;92.20
75681;BME280;64294;49.176;16.626;2022-12-07T07:53:06;99008.03;;;2.24;92.22
75681;BME280;64294;49.176;16.626;2022-12-07T07:55:31;99009.88;;;2.32;92.07
75681;BME280;64294;49.176;16.626;2022-12-07T07:57:57;99000.00;;;2.26;92.49
75681;BME280;64294;49.176;16.626;2022-12-07T08:00:22;99007.31;;;2.29;92.37
75681;BME280;64294;49.176;16.626;2022-12-07T08:02:48;99001.59;;;2.38;92.04
75681;BME280;64294;49.176;16.626;2022-12-07T08:05:13;99008.00;;;2.44;92.03
75681;BME280;64294;49.176;16.626;2022-12-07T08:07:39;99004.78;;;2.51;91.56
75681;BME280;64294;49.176;16.626;2022-12-07T08:10:06;99007.41;;;2.60;90.88
75681;BME280;64294;49.176;16.626;2022-12-07T08:12:35;99002.38;;;2.64;90.70
75681;BME280;64294;49.176;16.626;2022-12-07T08:15:01;99009.44;;;2.65;90.44
75681;BME280;64294;49.176;16.626;2022-12-07T08:17:26;99006.94;;;2.67;90.37
75681;BME280;64294;49.176;16.626;2022-12-07T08:19:52;99019.06;;;2.70;90.00
75681;BME280;64294;49.176;16.626;2022-12-07T08:22:17;99012.03;;;2.74;89.49
75681;BME280;64294;49.176;16.626;2022-12-07T08:24:43;99020.13;;;2.78;89.27
75681;BME280;64294;49.176;16.626;2022-12-07T08:27:08;99012.88;;;2.81;89.57
75681;BME280;64294;49.176;16.626;2022-12-07T08:29:34;99016.81;;;2.74;89.54
75681;BME280;64294;49.176;16.626;2022-12-07T08:31:59;99023.75;;;2.84;89.57
75681;BME280;64294;49.176;16.626;2022-12-07T08:34:26;99020.22;;;2.84;89.44
75681;BME280;64294;49.176;16.626;2022-12-07T08:36:51;99022.00;;;2.87;88.69
75681;BME280;64294;49.176;16.626;2022-12-07T08:39:17;99023.88;;;3.01;87.75
75681;BME280;64294;49.176;16.626;2022-12-07T08:41:42;99025.84;;;2.95;87.87
75681;BME280;64294;49.176;16.626;2022-12-07T08:44:08;99028.69;;;3.00;87.60
75681;BME280;64294;49.176;16.626;2022-12-07T08:46:40;99026.44;;;3.04;87.19
75681;BME280;64294;49.176;16.626;2022-12-07T08:49:13;99035.28;;;3.09;86.89
75681;BME280;64294;49.176;16.626;2022-12-07T08:51:41;99031.75;;;3.08;86.74
75681;BME280;64294;49.176;16.626;2022-12-07T08:54:10;99039.25;;;3.33;85.07
75681;BME280;64294;49.176;16.626;2022-12-07T08:56:36;99033.69;;;3.33;85.26
75681;BME280;64294;49.176;16.626;2022-12-07T08:59:02;99031.78;;;3.51;84.74
75681;BME280;64294;49.176;16.626;2022-12-07T09:01:28;99035.91;;;3.61;84.02
75681;BME280;64294;49.176;16.626;2022-12-07T09:03:54;99040.00;;;3.71;83.70
75681;BME280;64294;49.176;16.626;2022-12-07T09:06:20;99031.63;;;3.65;83.30
75681;BME280;64294;49.176;16.626;2022-12-07T09:08:47;99025.72;;;3.95;81.22
75681;BME280;64294;49.176;16.626;2022-12-07T09:11:13;99029.09;;;4.16;80.35
75681;BME280;64294;49.176;16.626;2022-12-07T09:13:39;99031.13;;;4.21;79.68
75681;BME280;64294;49.176;16.626;2022-12-07T09:16:04;99020.84;;;4.49;78.42
75681;BME280;64294;49.176;16.626;2022-12-07T09:18:30;99018.09;;;4.94;76.47
75681;BME280;64294;49.176;16.626;2022-12-07T09:20:56;99012.75;;;5.18;75.38
75681;BME280;64294;49.176;16.626;2022-12-07T09:23:21;99021.84;;;5.58;73.84
75681;BME280;64294;49.176;16.626;2022-12-07T09:25:46;99016.38;;;6.05;71.79
75681;BME280;64294;49.176;16.626;2022-12-07T09:28:12;99015.31;;;6.19;71.73
75681;BME280;64294;49.176;16.626;2022-12-07T09:30:37;99016.09;;;6.61;68.50
75681;BME280;64294;49.176;16.626;2022-12-07T09:33:03;99011.78;;;6.95;67.23
75681;BME280;64294;49.176;16.626;2022-12-07T09:35:28;99013.44;;;9.60;58.30
75681;BME280;64294;49.176;16.626;2022-12-07T09:37:54;99015.19;;;11.39;50.53
75681;BME280;64294;49.176;16.626;2022-12-07T09:40:21;99007.56;;;12.04;47.78
75681;BME280;64294;49.176;16.626;2022-12-07T09:42:50;99019.63;;;12.56;44.92
75681;BME280;64294;49.176;16.626;2022-12-07T09:45:22;99006.88;;;11.12;46.79
75681;BME280;64294;49.176;16.626;2022-12-07T09:47:48;99008.03;;;11.87;46.47
75681;BME280;64294;49.176;16.626;2022-12-07T09:50:20;98999.81;;;10.98;47.96
75681;BME280;64294;49.176;16.626;2022-12-07T09:52:47;99003.06;;;10.34;49.00
75681;BME280;64294;49.176;16.626;2022-12-07T09:55:26;98999.03;;;10.77;48.15
75681;BME280;64294;49.176;16.626;2022-12-07T09:57:53;98990.59;;;11.68;45.12
75681;BME280;64294;49.176;16.626;2022-12-07T10:00:20;98984.84;;;12.02;44.40
75681;BME280;64294;49.176;16.626;2022-12-07T10:02:51;98988.81;;;14.10;40.96
75681;BME280;64294;49.176;16.626;2022-12-07T10:05:24;98985.00;;;15.70;36.91
75681;BME280;64294;49.176;16.626;2022-12-07T10:07:51;98987.84;;;15.70;36.06
75681;BME280;64294;49.176;16.626;2022-12-07T10:10:26;98994.34;;;16.32;32.60
75681;BME280;64294;49.176;16.626;2022-12-07T10:15:18;98990.69;;;15.21;33.86
75681;BME280;64294;49.176;16.626;2022-12-07T10:17:49;99004.03;;;15.28;30.77
75681;BME280;64294;49.176;16.626;2022-12-07T10:23:07;98997.47;;;17.35;28.85
75681;BME280;64294;49.176;16.626;2022-12-07T10:25:38;98991.00;;;16.26;30.21
75681;BME280;64294;49.176;16.626;2022-12-07T10:28:10;98991.09;;;14.04;32.76
75681;BME280;64294;49.176;16.626;2022-12-07T10:30:57;98978.59;;;14.22;33.49
75681;BME280;64294;49.176;16.626;2022-12-07T10:35:55;98977.53;;;15.58;30.67
75681;BME280;64294;49.176;16.626;2022-12-07T10:38:21;98960.06;;;14.44;32.15
75681;BME280;64294;49.176;16.626;2022-12-07T10:40:46;98972.50;;;15.31;30.96
75681;BME280;64294;49.176;16.626;2022-12-07T10:52:13;98967.00;;;18.90;25.89
75681;BME280;64294;49.176;16.626;2022-12-07T11:00:25;98965.25;;;18.75;26.24
75681;BME280;64294;49.176;16.626;2022-12-07T11:11:23;98955.16;;;11.15;39.48
75681;BME280;64294;49.176;16.626;2022-12-07T11:14:05;98955.56;;;9.96;42.58
75681;BME280;64294;49.176;16.626;2022-12-07T11:20:12;98948.81;;;8.80;45.50
75681;BME280;64294;49.176;16.626;2022-12-07T11:23:04;98946.66;;;8.36;46.92
75681;BME280;64294;49.176;16.626;2022-12-07T11:30:53;98938.16;;;11.21;41.88
75681;BME280;64294;49.176;16.626;2022-12-07T11:36:29;98924.69;;;13.80;35.25
75681;BME280;64294;49.176;16.626;2022-12-07T11:39:00;98924.75;;;12.73;36.94
75681;BME280;64294;49.176;16.626;2022-12-07T11:41:29;98920.94;;;11.04;40.06
75681;BME280;64294;49.176;16.626;2022-12-07T11:44:14;98919.78;;;9.76;43.79
75681;BME280;64294;49.176;16.626;2022-12-07T11:46:50;98915.03;;;9.31;44.34
75681;BME280;64294;49.176;16.626;2022-12-07T11:52:22;98915.81;;;8.23;47.72
75681;BME280;64294;49.176;16.626;2022-12-07T11:54:52;98918.06;;;7.68;49.74
75681;BME280;64294;49.176;16.626;2022-12-07T11:57:39;98918.44;;;7.34;51.53
75681;BME280;64294;49.176;16.626;2022-12-07T12:00:14;98921.56;;;7.25;51.62
75681;BME280;64294;49.176;16.626;2022-12-07T12:02:52;98918.16;;;7.81;50.21
75681;BME280;64294;49.176;16.626;2022-12-07T12:05:23;98917.78;;;8.09;49.71
75681;BME280;64294;49.176;16.626;2022-12-07T12:10:44;98915.56;;;7.40;51.42
75681;BME280;64294;49.176;16.626;2022-12-07T12:17:06;98917.84;;;7.17;52.42
75681;BME280;64294;49.176;16.626;2022-12-07T12:22:17;98921.81;;;6.43;54.91
75681;BME280;64294;49.176;16.626;2022-12-07T12:24:46;98916.94;;;6.07;56.43
75681;BME280;64294;49.176;16.626;2022-12-07T12:27:35;98917.41;;;6.17;56.43
75681;BME280;64294;49.176;16.626;2022-12-07T12:30:04;98912.72;;;5.95;57.42
75681;BME280;64294;49.176;16.626;2022-12-07T12:32:42;98914.25;;;5.91;56.88
75681;BME280;64294;49.176;16.626;2022-12-07T12:35:37;98910.47;;;5.83;58.63
75681;BME280;64294;49.176;16.626;2022-12-07T12:38:26;98908.78;;;5.63;58.15
75681;BME280;64294;49.176;16.626;2022-12-07T12:40:54;98913.19;;;5.41;57.92
75681;BME280;64294;49.176;16.626;2022-12-07T12:43:45;98910.72;;;5.15;59.86
75681;BME280;64294;49.176;16.626;2022-12-07T12:49:32;98914.06;;;4.80;60.84
75681;BME280;64294;49.176;16.626;2022-12-07T12:52:47;98918.63;;;4.89;61.28
75681;BME280;64294;49.176;16.626;2022-12-07T12:55:10;98912.03;;;4.92;61.72
75681;BME280;64294;49.176;16.626;2022-12-07T12:57:37;98916.56;;;5.06;61.32
75681;BME280;64294;49.176;16.626;2022-12-07T13:00:24;98905.66;;;5.14;60.05
75681;BME280;64294;49.176;16.626;2022-12-07T13:02:58;98919.31;;;5.23;60.13
75681;BME280;64294;49.176;16.626;2022-12-07T13:05:31;98902.28;;;5.43;59.61
75681;BME280;64294;49.176;16.626;2022-12-07T13:08:30;98915.53;;;5.21;59.61
75681;BME280;64294;49.176;16.626;2022-12-07T13:10:48;98925.59;;;5.35;59.84
75681;BME280;64294;49.176;16.626;2022-12-07T13:15:49;98917.78;;;5.28;60.14
75681;BME280;64294;49.176;16.626;2022-12-07T13:18:35;98925.09;;;5.42;59.48
75681;BME280;64294;49.176;16.626;2022-12-07T13:23:36;98928.38;;;5.35;60.03
75681;BME280;64294;49.176;16.626;2022-12-07T13:28:38;98925.34;;;5.33;61.56
75681;BME280;64294;49.176;16.626;2022-12-07T13:31:11;98920.81;;;5.30;61.66
75681;BME280;64294;49.176;16.626;2022-12-07T13:33:38;98926.66;;;5.26;62.35
75681;BME280;64294;49.176;16.626;2022-12-07T13:36:04;98923.63;;;5.18;61.11
75681;BME280;64294;49.176;16.626;2022-12-07T13:38:35;98920.63;;;5.05;62.07
75681;BME280;64294;49.176;16.626;2022-12-07T13:43:30;98919.31;;;5.17;61.77
75681;BME280;64294;49.176;16.626;2022-12-07T13:45:57;98931.50;;;4.92;61.91
75681;BME280;64294;49.176;16.626;2022-12-07T13:48:43;98926.44;;;4.96;62.70
75681;BME280;64294;49.176;16.626;2022-12-07T13:51:20;98922.91;;;4.90;62.02
75681;BME280;64294;49.176;16.626;2022-12-07T13:54:00;98919.38;;;4.62;62.74
75681;BME280;64294;49.176;16.626;2022-12-07T13:56:31;98927.50;;;4.48;62.97
75681;BME280;64294;49.176;16.626;2022-12-07T13:58:58;98931.28;;;4.51;63.27
75681;BME280;64294;49.176;16.626;2022-12-07T14:01:24;98923.44;;;4.49;63.85
75681;BME280;64294;49.176;16.626;2022-12-07T14:03:50;98926.97;;;4.55;64.03
75681;BME280;64294;49.176;16.626;2022-12-07T14:06:26;98924.44;;;4.57;63.38
75681;BME280;64294;49.176;16.626;2022-12-07T14:09:28;98924.72;;;4.48;64.13
75681;BME280;64294;49.176;16.626;2022-12-07T14:11:55;98919.63;;;4.36;64.24
75681;BME280;64294;49.176;16.626;2022-12-07T14:14:46;98934.28;;;4.36;65.03
75681;BME280;64294;49.176;16.626;2022-12-07T14:17:17;98930.97;;;4.26;64.41
75681;BME280;64294;49.176;16.626;2022-12-07T14:22:38;98941.34;;;4.15;66.26
75681;BME280;64294;49.176;16.626;2022-12-07T14:27:39;98934.78;;;4.18;65.74
75681;BME280;64294;49.176;16.626;2022-12-07T14:30:05;98953.97;;;4.10;66.32
75681;BME280;64294;49.176;16.626;2022-12-07T14:32:32;98940.84;;;4.11;66.27
75681;BME280;64294;49.176;16.626;2022-12-07T14:35:09;98936.75;;;4.06;66.60
75681;BME280;64294;49.176;16.626;2022-12-07T14:37:36;98936.00;;;4.06;66.18
75681;BME280;64294;49.176;16.626;2022-12-07T14:40:03;98935.50;;;4.02;66.34
75681;BME280;64294;49.176;16.626;2022-12-07T14:42:29;98935.75;;;3.98;67.14
75681;BME280;64294;49.176;16.626;2022-12-07T14:44:56;98939.50;;;3.89;66.90
75681;BME280;64294;49.176;16.626;2022-12-07T14:47:23;98931.44;;;3.91;67.32
75681;BME280;64294;49.176;16.626;2022-12-07T14:49:49;98944.03;;;3.87;67.71